Nyk Meteor — 3ENA9 — position and weather

sailwx.info

Track history (hours):
 
Tides and Currents Weather Stations Pressure Air Temp Water Temp Dewpoint Dewpoint Depression Visibility Wind Speed Wind Dir Waves Ship Positions

Nyk Meteor

Last reported at 2017-Oct-18 13:30 UTC. Time now 2017-Oct-18 15:17 UTC.
Position N 50°54' W 001°27'.

Length 294 m; draft 10.6 m.

Type: Cargo ship. MMSI: 354212000.

Date/timePositionNaut miles runAvg speedWind from/ knotsBaromVisibWave heightAir tempDewpointWater temp
2017-Oct-18 13:30N 50°54' W 001°27'0 0.0
2017-Oct-18 12:54N 50°54' W 001°27'0 0.0
2017-Oct-18 12:30N 50°54' W 001°27'0 0.0
2017-Oct-18 12:00N 50°54' W 001°27'0 0.0
2017-Oct-18 10:54N 50°54' W 001°27'0 0.0
2017-Oct-18 10:30N 50°54' W 001°27'0 0.0
2017-Oct-18 10:00N 50°54' W 001°27'0 0.0
2017-Oct-18 09:30N 50°54' W 001°27'0 0.0
2017-Oct-18 09:00N 50°54' W 001°27'0 0.0
2017-Oct-18 07:54N 50°54' W 001°27'0 0.0
2017-Oct-18 06:36N 50°54' W 001°27'0 0.0
2017-Oct-18 05:42N 50°54' W 001°27'0 0.0
2017-Oct-18 05:27N 50°54' W 001°27'0 0.0
2017-Oct-18 05:01N 50°54' W 001°27'1 2.2
2017-Oct-18 04:30N 50°54' W 001°26'4 7.4
2017-Oct-18 04:01N 50°52' W 001°22'5 9.1
2017-Oct-18 03:31N 50°47' W 001°19'5 9.8
2017-Oct-18 03:01N 50°46' W 001°11'612.4
2017-Oct-18 02:31N 50°44' W 001°02'611.1
2017-Oct-18 02:01N 50°40' W 000°56'5 9.1
2017-Oct-18 01:31N 50°35' W 000°58'815.7
2017-Oct-18 01:01N 50°30' W 001°07'816.3
2017-Oct-18 00:30N 50°28' W 001°19'1016.1
2017-Oct-17 23:54N 50°25' W 001°34'614.2
2017-Oct-17 23:29N 50°23' W 001°43'2616.4
2017-Oct-17 21:55N 50°16' W 002°22'819.4
2017-Oct-17 21:30N 50°14' W 002°34'1019.7
2017-Oct-17 21:00N 50°12' W 002°49'1019.8
2017-Oct-17 20:30N 50°09' W 003°03'1020.0
2017-Oct-17 20:00N 50°06' W 003°18'1020.3
2017-Oct-17 19:30N 50°03' W 003°34'1020.3
2017-Oct-17 19:00N 50°01' W 003°49'1020.3
2017-Oct-17 18:30N 49°58' W 004°04'1020.3
2017-Oct-17 18:00N 49°56' W 004°19'1019.8
2017-Oct-17 17:30N 49°51' W 004°33'1020.3
2017-Oct-17 17:00N 49°51' W 004°49'1020.8
2017-Oct-17 16:30N 49°48' W 005°04'1020.7
2017-Oct-17 16:00N 49°46' W 005°20'1120.8
2017-Oct-17 15:28N 49°42' W 005°36'1020.7
2017-Oct-17 14:58N 49°40' W 005°52'920.4
2017-Oct-17 14:30N 49°38' W 006°06'1620.0
2017-Oct-17 13:41N 49°38' W 006°32'  
Track history (hours):
 
Tides and Currents Weather Stations Pressure Air Temp Water Temp Dewpoint Dewpoint Depression Visibility Wind Speed Wind Dir Waves Ship Positions

Nyk Meteor

Last reported at 2017-Oct-18 13:30 UTC. Time now 2017-Oct-18 15:17 UTC.
Position N 50°54' W 001°27'.

Length 294 m; draft 10.6 m.

Type: Cargo ship. MMSI: 354212000.

Date/timePositionNaut miles runAvg speedWind from/ knotsBaromVisibWave heightAir tempDewpointWater temp
2017-Oct-18 13:30N 50°54' W 001°27'0 0.0
2017-Oct-18 12:54N 50°54' W 001°27'0 0.0
2017-Oct-18 12:30N 50°54' W 001°27'0 0.0
2017-Oct-18 12:00N 50°54' W 001°27'0 0.0
2017-Oct-18 10:54N 50°54' W 001°27'0 0.0
2017-Oct-18 10:30N 50°54' W 001°27'0 0.0
2017-Oct-18 10:00N 50°54' W 001°27'0 0.0
2017-Oct-18 09:30N 50°54' W 001°27'0 0.0
2017-Oct-18 09:00N 50°54' W 001°27'0 0.0
2017-Oct-18 07:54N 50°54' W 001°27'0 0.0
2017-Oct-18 06:36N 50°54' W 001°27'0 0.0
2017-Oct-18 05:42N 50°54' W 001°27'0 0.0
2017-Oct-18 05:27N 50°54' W 001°27'0 0.0
2017-Oct-18 05:01N 50°54' W 001°27'1 2.2
2017-Oct-18 04:30N 50°54' W 001°26'4 7.4
2017-Oct-18 04:01N 50°52' W 001°22'5 9.1
2017-Oct-18 03:31N 50°47' W 001°19'5 9.8
2017-Oct-18 03:01N 50°46' W 001°11'612.4
2017-Oct-18 02:31N 50°44' W 001°02'611.1
2017-Oct-18 02:01N 50°40' W 000°56'5 9.1
2017-Oct-18 01:31N 50°35' W 000°58'815.7
2017-Oct-18 01:01N 50°30' W 001°07'816.3
2017-Oct-18 00:30N 50°28' W 001°19'1016.1
2017-Oct-17 23:54N 50°25' W 001°34'614.2
2017-Oct-17 23:29N 50°23' W 001°43'2616.4
2017-Oct-17 21:55N 50°16' W 002°22'819.4
2017-Oct-17 21:30N 50°14' W 002°34'1019.7
2017-Oct-17 21:00N 50°12' W 002°49'1019.8
2017-Oct-17 20:30N 50°09' W 003°03'1020.0
2017-Oct-17 20:00N 50°06' W 003°18'1020.3
2017-Oct-17 19:30N 50°03' W 003°34'1020.3
2017-Oct-17 19:00N 50°01' W 003°49'1020.3
2017-Oct-17 18:30N 49°58' W 004°04'1020.3
2017-Oct-17 18:00N 49°56' W 004°19'1019.8
2017-Oct-17 17:30N 49°51' W 004°33'1020.3
2017-Oct-17 17:00N 49°51' W 004°49'1020.8
2017-Oct-17 16:30N 49°48' W 005°04'1020.7
2017-Oct-17 16:00N 49°46' W 005°20'1120.8
2017-Oct-17 15:28N 49°42' W 005°36'1020.7
2017-Oct-17 14:58N 49°40' W 005°52'920.4
2017-Oct-17 14:30N 49°38' W 006°06'1620.0
2017-Oct-17 13:41N 49°38' W 006°32'  

Dump ship's entire track history